sensor_id;sensor_type;location;lat;lon;timestamp;noise_LAeq;noise_LA_min;noise_LA_max;noise_LA01;noise_LA95
74214;Laerm;62576;55.694;37.494;2023-05-07T00:00:49;58.84;54.23;68.85;;
74214;Laerm;62576;55.694;37.494;2023-05-07T00:03:22;57.05;53.83;63.44;;
74214;Laerm;62576;55.694;37.494;2023-05-07T00:05:52;59.55;54.13;67.23;;
74214;Laerm;62576;55.694;37.494;2023-05-07T00:08:26;61.17;54.06;70.57;;
74214;Laerm;62576;55.694;37.494;2023-05-07T00:10:56;57.21;53.66;64.03;;
74214;Laerm;62576;55.694;37.494;2023-05-07T00:13:26;58.63;54.12;66.51;;
74214;Laerm;62576;55.694;37.494;2023-05-07T00:15:59;57.84;53.78;65.84;;
74214;Laerm;62576;55.694;37.494;2023-05-07T00:18:29;58.92;53.34;74.85;;
74214;Laerm;62576;55.694;37.494;2023-05-07T00:20:59;56.74;53.77;61.11;;
74214;Laerm;62576;55.694;37.494;2023-05-07T00:23:30;57.63;53.88;64.05;;
74214;Laerm;62576;55.694;37.494;2023-05-07T00:26:00;58.91;54.48;70.82;;
74214;Laerm;62576;55.694;37.494;2023-05-07T00:28:30;59.71;54.41;71.92;;
74214;Laerm;62576;55.694;37.494;2023-05-07T00:31:00;57.46;54.01;63.14;;
74214;Laerm;62576;55.694;37.494;2023-05-07T00:33:30;60.37;54.44;68.47;;
74214;Laerm;62576;55.694;37.494;2023-05-07T00:35:59;57.51;53.99;62.78;;
74214;Laerm;62576;55.694;37.494;2023-05-07T00:38:27;57.93;53.90;63.09;;
74214;Laerm;62576;55.694;37.494;2023-05-07T00:40:59;57.41;53.93;62.81;;
74214;Laerm;62576;55.694;37.494;2023-05-07T00:43:29;58.23;53.62;64.36;;
74214;Laerm;62576;55.694;37.494;2023-05-07T00:45:59;58.09;53.60;67.49;;
74214;Laerm;62576;55.694;37.494;2023-05-07T00:48:30;58.36;53.86;65.04;;
74214;Laerm;62576;55.694;37.494;2023-05-07T00:51:00;59.01;53.93;75.23;;
74214;Laerm;62576;55.694;37.494;2023-05-07T00:53:30;57.49;53.88;64.11;;
74214;Laerm;62576;55.694;37.494;2023-05-07T00:56:01;56.09;53.47;61.13;;
74214;Laerm;62576;55.694;37.494;2023-05-07T00:58:31;59.31;53.76;68.81;;
74214;Laerm;62576;55.694;37.494;2023-05-07T01:01:01;59.26;53.70;69.12;;
74214;Laerm;62576;55.694;37.494;2023-05-07T01:03:32;57.07;54.00;63.95;;
74214;Laerm;62576;55.694;37.494;2023-05-07T01:06:03;58.48;53.93;64.65;;
74214;Laerm;62576;55.694;37.494;2023-05-07T01:08:34;58.79;53.99;66.36;;
74214;Laerm;62576;55.694;37.494;2023-05-07T01:11:06;59.13;53.33;66.88;;
74214;Laerm;62576;55.694;37.494;2023-05-07T01:13:36;57.37;53.94;64.39;;
74214;Laerm;62576;55.694;37.494;2023-05-07T01:16:08;57.61;53.89;62.61;;
74214;Laerm;62576;55.694;37.494;2023-05-07T01:18:39;57.65;53.62;64.64;;
74214;Laerm;62576;55.694;37.494;2023-05-07T01:21:11;56.97;53.76;65.42;;
74214;Laerm;62576;55.694;37.494;2023-05-07T01:23:45;58.29;54.26;66.92;;
74214;Laerm;62576;55.694;37.494;2023-05-07T01:26:15;58.47;53.99;68.77;;
74214;Laerm;62576;55.694;37.494;2023-05-07T01:28:47;58.19;53.88;67.06;;
74214;Laerm;62576;55.694;37.494;2023-05-07T01:31:17;57.60;53.73;63.46;;
74214;Laerm;62576;55.694;37.494;2023-05-07T01:33:48;59.37;54.58;67.23;;
74214;Laerm;62576;55.694;37.494;2023-05-07T01:36:20;58.41;53.90;68.23;;
74214;Laerm;62576;55.694;37.494;2023-05-07T01:38:53;62.02;57.02;67.49;;
74214;Laerm;62576;55.694;37.494;2023-05-07T01:41:23;59.39;54.63;68.80;;
74214;Laerm;62576;55.694;37.494;2023-05-07T01:43:54;56.69;53.78;62.24;;
74214;Laerm;62576;55.694;37.494;2023-05-07T01:46:26;59.80;55.02;79.49;;
74214;Laerm;62576;55.694;37.494;2023-05-07T01:48:56;57.39;53.60;64.83;;
74214;Laerm;62576;55.694;37.494;2023-05-07T01:51:26;59.21;54.03;64.98;;
74214;Laerm;62576;55.694;37.494;2023-05-07T01:53:58;59.07;54.21;66.10;;
74214;Laerm;62576;55.694;37.494;2023-05-07T01:56:28;62.35;55.15;73.50;;
74214;Laerm;62576;55.694;37.494;2023-05-07T01:58:58;65.18;57.23;75.80;;
74214;Laerm;62576;55.694;37.494;2023-05-07T02:01:28;60.10;54.90;73.50;;
74214;Laerm;62576;55.694;37.494;2023-05-07T02:03:58;57.58;54.22;65.56;;
74214;Laerm;62576;55.694;37.494;2023-05-07T02:06:28;60.22;54.03;67.74;;
74214;Laerm;62576;55.694;37.494;2023-05-07T02:09:01;62.22;55.84;73.14;;
74214;Laerm;62576;55.694;37.494;2023-05-07T02:11:31;59.52;54.49;67.33;;
74214;Laerm;62576;55.694;37.494;2023-05-07T02:14:01;59.04;54.43;67.23;;
74214;Laerm;62576;55.694;37.494;2023-05-07T02:16:31;59.11;54.01;68.21;;
74214;Laerm;62576;55.694;37.494;2023-05-07T02:19:01;60.13;53.75;68.62;;
74214;Laerm;62576;55.694;37.494;2023-05-07T02:21:31;59.33;54.24;65.72;;
74214;Laerm;62576;55.694;37.494;2023-05-07T02:24:03;59.27;53.92;69.45;;
74214;Laerm;62576;55.694;37.494;2023-05-07T02:26:32;57.83;53.83;68.10;;
74214;Laerm;62576;55.694;37.494;2023-05-07T02:29:02;58.19;54.62;64.86;;
74214;Laerm;62576;55.694;37.494;2023-05-07T02:31:29;59.63;55.21;65.29;;
74214;Laerm;62576;55.694;37.494;2023-05-07T02:34:00;61.86;53.96;73.65;;
74214;Laerm;62576;55.694;37.494;2023-05-07T02:36:30;57.32;54.25;61.46;;
74214;Laerm;62576;55.694;37.494;2023-05-07T02:38:57;57.87;54.18;64.73;;
74214;Laerm;62576;55.694;37.494;2023-05-07T02:41:28;58.17;54.69;62.78;;
74214;Laerm;62576;55.694;37.494;2023-05-07T02:43:58;61.69;54.28;81.93;;
74214;Laerm;62576;55.694;37.494;2023-05-07T02:46:28;58.49;54.29;65.53;;
74214;Laerm;62576;55.694;37.494;2023-05-07T02:48:58;59.26;54.14;69.03;;
74214;Laerm;62576;55.694;37.494;2023-05-07T02:51:30;56.74;53.64;63.27;;
74214;Laerm;62576;55.694;37.494;2023-05-07T02:54:02;58.18;54.19;65.56;;
74214;Laerm;62576;55.694;37.494;2023-05-07T02:56:34;58.99;54.06;67.14;;
74214;Laerm;62576;55.694;37.494;2023-05-07T02:59:04;59.05;54.28;66.73;;
74214;Laerm;62576;55.694;37.494;2023-05-07T03:01:34;60.75;54.82;68.86;;
74214;Laerm;62576;55.694;37.494;2023-05-07T03:04:04;60.52;54.34;76.36;;
74214;Laerm;62576;55.694;37.494;2023-05-07T03:06:34;59.78;54.70;70.04;;
74214;Laerm;62576;55.694;37.494;2023-05-07T03:09:04;57.93;53.97;70.09;;
74214;Laerm;62576;55.694;37.494;2023-05-07T03:11:36;60.78;54.28;70.49;;
74214;Laerm;62576;55.694;37.494;2023-05-07T03:14:06;60.07;54.09;66.35;;
74214;Laerm;62576;55.694;37.494;2023-05-07T03:16:36;58.09;53.86;64.02;;
74214;Laerm;62576;55.694;37.494;2023-05-07T03:19:06;57.51;54.28;62.94;;
74214;Laerm;62576;55.694;37.494;2023-05-07T03:21:36;57.15;54.11;61.70;;
74214;Laerm;62576;55.694;37.494;2023-05-07T03:24:06;56.89;44.50;64.04;;
74214;Laerm;62576;55.694;37.494;2023-05-07T03:26:37;57.89;53.96;73.96;;
74214;Laerm;62576;55.694;37.494;2023-05-07T03:29:07;57.65;47.55;67.41;;
74214;Laerm;62576;55.694;37.494;2023-05-07T03:31:37;60.64;48.57;67.84;;
74214;Laerm;62576;55.694;37.494;2023-05-07T03:34:07;57.74;54.07;64.69;;
74214;Laerm;62576;55.694;37.494;2023-05-07T03:36:37;57.31;45.49;64.47;;
74214;Laerm;62576;55.694;37.494;2023-05-07T03:39:04;59.26;53.03;69.51;;
74214;Laerm;62576;55.694;37.494;2023-05-07T03:41:34;59.01;55.17;67.91;;
74214;Laerm;62576;55.694;37.494;2023-05-07T03:44:06;57.78;46.11;66.30;;
74214;Laerm;62576;55.694;37.494;2023-05-07T03:46:36;56.77;48.30;64.53;;
74214;Laerm;62576;55.694;37.494;2023-05-07T03:49:06;60.58;49.28;67.45;;
74214;Laerm;62576;55.694;37.494;2023-05-07T03:51:36;58.56;49.56;65.22;;
74214;Laerm;62576;55.694;37.494;2023-05-07T03:54:06;60.62;51.03;69.30;;
74214;Laerm;62576;55.694;37.494;2023-05-07T03:56:37;60.62;54.73;67.75;;
74214;Laerm;62576;55.694;37.494;2023-05-07T03:59:08;61.13;55.52;68.00;;
74214;Laerm;62576;55.694;37.494;2023-05-07T04:01:38;59.97;55.18;66.17;;
74214;Laerm;62576;55.694;37.494;2023-05-07T04:04:08;58.23;53.87;66.61;;
74214;Laerm;62576;55.694;37.494;2023-05-07T04:06:38;62.84;54.29;74.27;;
74214;Laerm;62576;55.694;37.494;2023-05-07T04:09:08;61.52;56.01;73.83;;
74214;Laerm;62576;55.694;37.494;2023-05-07T04:11:38;59.12;52.98;63.85;;
74214;Laerm;62576;55.694;37.494;2023-05-07T04:14:10;59.69;53.87;66.07;;
74214;Laerm;62576;55.694;37.494;2023-05-07T04:16:40;59.70;52.39;68.87;;
74214;Laerm;62576;55.694;37.494;2023-05-07T04:19:09;60.71;53.15;74.07;;
74214;Laerm;62576;55.694;37.494;2023-05-07T04:21:39;59.35;50.85;70.56;;
74214;Laerm;62576;55.694;37.494;2023-05-07T04:24:09;59.55;48.14;65.95;;
74214;Laerm;62576;55.694;37.494;2023-05-07T04:26:39;63.39;55.60;74.00;;
74214;Laerm;62576;55.694;37.494;2023-05-07T04:29:11;61.47;54.80;68.81;;
74214;Laerm;62576;55.694;37.494;2023-05-07T04:31:43;61.38;49.62;69.00;;
74214;Laerm;62576;55.694;37.494;2023-05-07T04:41:15;59.22;50.30;66.55;;
74214;Laerm;62576;55.694;37.494;2023-05-07T04:43:45;65.84;51.65;86.00;;
74214;Laerm;62576;55.694;37.494;2023-05-07T04:46:16;61.70;50.98;75.94;;
74214;Laerm;62576;55.694;37.494;2023-05-07T04:48:46;61.24;52.28;68.10;;
74214;Laerm;62576;55.694;37.494;2023-05-07T04:51:16;62.02;57.10;69.37;;
74214;Laerm;62576;55.694;37.494;2023-05-07T04:53:46;63.43;54.56;70.67;;
74214;Laerm;62576;55.694;37.494;2023-05-07T04:56:16;62.05;51.97;71.23;;
74214;Laerm;62576;55.694;37.494;2023-05-07T04:58:46;60.55;56.17;67.58;;
74214;Laerm;62576;55.694;37.494;2023-05-07T05:01:18;61.92;55.97;69.26;;
74214;Laerm;62576;55.694;37.494;2023-05-07T05:03:48;63.78;54.13;74.96;;
74214;Laerm;62576;55.694;37.494;2023-05-07T05:06:18;62.24;54.48;74.32;;
74214;Laerm;62576;55.694;37.494;2023-05-07T05:08:48;63.03;52.49;69.27;;
74214;Laerm;62576;55.694;37.494;2023-05-07T05:11:18;61.87;55.06;69.28;;
74214;Laerm;62576;55.694;37.494;2023-05-07T05:13:48;62.63;56.18;68.60;;
74214;Laerm;62576;55.694;37.494;2023-05-07T05:16:20;62.53;54.25;68.49;;
74214;Laerm;62576;55.694;37.494;2023-05-07T05:18:50;61.60;54.15;71.05;;
74214;Laerm;62576;55.694;37.494;2023-05-07T05:21:21;63.03;56.36;70.82;;
74214;Laerm;62576;55.694;37.494;2023-05-07T05:23:51;61.94;54.35;69.26;;
74214;Laerm;62576;55.694;37.494;2023-05-07T05:26:21;62.38;53.52;67.92;;
74214;Laerm;62576;55.694;37.494;2023-05-07T05:28:51;61.64;52.24;70.02;;
74214;Laerm;62576;55.694;37.494;2023-05-07T05:31:22;62.90;53.00;70.48;;
74214;Laerm;62576;55.694;37.494;2023-05-07T05:33:52;60.38;51.98;68.57;;
74214;Laerm;62576;55.694;37.494;2023-05-07T05:36:22;63.78;55.54;71.49;;
74214;Laerm;62576;55.694;37.494;2023-05-07T05:38:52;64.24;54.91;75.31;;
74214;Laerm;62576;55.694;37.494;2023-05-07T05:41:22;66.82;55.30;82.87;;
74214;Laerm;62576;55.694;37.494;2023-05-07T05:43:53;61.30;52.49;72.72;;
74214;Laerm;62576;55.694;37.494;2023-05-07T05:46:24;61.29;52.47;68.86;;
74214;Laerm;62576;55.694;37.494;2023-05-07T05:48:54;62.14;52.45;75.48;;
74214;Laerm;62576;55.694;37.494;2023-05-07T05:51:25;61.33;54.33;81.44;;
74214;Laerm;62576;55.694;37.494;2023-05-07T05:53:55;63.65;56.10;74.49;;
74214;Laerm;62576;55.694;37.494;2023-05-07T05:56:25;61.72;52.71;68.79;;
74214;Laerm;62576;55.694;37.494;2023-05-07T05:58:55;60.72;53.04;69.51;;
74214;Laerm;62576;55.694;37.494;2023-05-07T06:01:27;62.16;52.34;73.43;;
74214;Laerm;62576;55.694;37.494;2023-05-07T06:03:57;62.35;53.90;68.80;;
74214;Laerm;62576;55.694;37.494;2023-05-07T06:06:27;62.09;55.79;75.00;;
74214;Laerm;62576;55.694;37.494;2023-05-07T06:08:57;62.88;53.55;75.30;;
74214;Laerm;62576;55.694;37.494;2023-05-07T06:11:28;61.78;53.21;67.73;;
74214;Laerm;62576;55.694;37.494;2023-05-07T06:13:58;61.55;53.08;72.29;;
74214;Laerm;62576;55.694;37.494;2023-05-07T06:16:30;64.79;55.89;80.34;;
74214;Laerm;62576;55.694;37.494;2023-05-07T06:19:00;63.79;57.29;73.64;;
74214;Laerm;62576;55.694;37.494;2023-05-07T06:21:30;64.34;55.39;78.89;;
74214;Laerm;62576;55.694;37.494;2023-05-07T06:24:00;64.29;55.11;72.35;;
74214;Laerm;62576;55.694;37.494;2023-05-07T06:26:30;63.76;57.70;76.95;;
74214;Laerm;62576;55.694;37.494;2023-05-07T06:28:59;63.11;54.10;75.72;;
74214;Laerm;62576;55.694;37.494;2023-05-07T06:31:31;63.80;54.98;70.59;;
74214;Laerm;62576;55.694;37.494;2023-05-07T06:34:04;63.10;56.25;69.24;;
74214;Laerm;62576;55.694;37.494;2023-05-07T06:36:34;61.71;54.43;67.22;;
74214;Laerm;62576;55.694;37.494;2023-05-07T06:39:04;64.80;53.75;85.36;;
74214;Laerm;62576;55.694;37.494;2023-05-07T06:41:34;63.35;58.06;73.54;;
74214;Laerm;62576;55.694;37.494;2023-05-07T06:44:04;63.32;54.90;68.02;;
74214;Laerm;62576;55.694;37.494;2023-05-07T06:46:36;63.00;56.20;68.43;;
74214;Laerm;62576;55.694;37.494;2023-05-07T06:49:07;62.88;57.19;70.58;;
74214;Laerm;62576;55.694;37.494;2023-05-07T06:51:37;62.96;53.76;76.78;;
74214;Laerm;62576;55.694;37.494;2023-05-07T06:54:07;66.45;58.87;82.18;;
74214;Laerm;62576;55.694;37.494;2023-05-07T06:56:37;67.27;57.96;75.81;;
74214;Laerm;62576;55.694;37.494;2023-05-07T06:59:07;63.83;53.22;77.18;;
74214;Laerm;62576;55.694;37.494;2023-05-07T07:01:38;63.03;56.88;70.42;;
74214;Laerm;62576;55.694;37.494;2023-05-07T07:04:08;62.93;55.85;79.20;;
74214;Laerm;62576;55.694;37.494;2023-05-07T07:06:38;62.86;57.31;76.55;;
74214;Laerm;62576;55.694;37.494;2023-05-07T07:09:08;64.26;56.75;77.96;;
74214;Laerm;62576;55.694;37.494;2023-05-07T07:11:38;62.76;55.38;72.86;;
74214;Laerm;62576;55.694;37.494;2023-05-07T07:14:08;63.39;56.02;73.01;;
74214;Laerm;62576;55.694;37.494;2023-05-07T07:16:40;65.56;55.69;76.55;;
74214;Laerm;62576;55.694;37.494;2023-05-07T07:19:10;64.75;57.53;85.15;;
74214;Laerm;62576;55.694;37.494;2023-05-07T07:21:43;64.19;56.28;84.39;;
74214;Laerm;62576;55.694;37.494;2023-05-07T07:24:14;62.58;57.15;73.84;;
74214;Laerm;62576;55.694;37.494;2023-05-07T07:27:04;65.93;60.01;80.16;;
74214;Laerm;62576;55.694;37.494;2023-05-07T07:33:24;64.57;57.43;83.39;;
74214;Laerm;62576;55.694;37.494;2023-05-07T07:46:37;62.00;52.38;77.62;;
74214;Laerm;62576;55.694;37.494;2023-05-07T07:49:09;62.86;53.85;69.37;;
74214;Laerm;62576;55.694;37.494;2023-05-07T07:51:39;63.97;53.89;74.09;;
74214;Laerm;62576;55.694;37.494;2023-05-07T07:54:09;63.11;56.66;74.71;;
74214;Laerm;62576;55.694;37.494;2023-05-07T07:56:39;62.00;56.53;73.03;;
74214;Laerm;62576;55.694;37.494;2023-05-07T07:59:09;62.17;56.78;72.79;;
74214;Laerm;62576;55.694;37.494;2023-05-07T08:01:39;61.78;53.86;69.10;;
74214;Laerm;62576;55.694;37.494;2023-05-07T08:04:10;61.28;53.56;66.63;;
74214;Laerm;62576;55.694;37.494;2023-05-07T08:06:40;60.85;52.75;66.68;;
74214;Laerm;62576;55.694;37.494;2023-05-07T08:09:10;62.86;56.66;78.29;;
74214;Laerm;62576;55.694;37.494;2023-05-07T08:11:41;65.21;59.41;76.09;;
74214;Laerm;62576;55.694;37.494;2023-05-07T08:14:12;62.89;52.70;71.40;;
74214;Laerm;62576;55.694;37.494;2023-05-07T08:16:42;63.32;56.65;76.05;;
74214;Laerm;62576;55.694;37.494;2023-05-07T08:19:13;66.53;57.73;82.74;;
74214;Laerm;62576;55.694;37.494;2023-05-07T08:21:45;64.07;57.45;74.44;;
74214;Laerm;62576;55.694;37.494;2023-05-07T08:24:17;63.40;58.94;69.41;;
74214;Laerm;62576;55.694;37.494;2023-05-07T08:26:47;65.24;57.68;73.48;;
74214;Laerm;62576;55.694;37.494;2023-05-07T08:29:18;61.49;52.37;71.31;;
74214;Laerm;62576;55.694;37.494;2023-05-07T08:31:48;62.58;57.91;71.83;;
74214;Laerm;62576;55.694;37.494;2023-05-07T08:34:20;63.74;55.06;77.44;;
74214;Laerm;62576;55.694;37.494;2023-05-07T08:36:51;64.04;57.89;80.10;;
74214;Laerm;62576;55.694;37.494;2023-05-07T08:39:21;62.75;56.95;76.12;;
74214;Laerm;62576;55.694;37.494;2023-05-07T08:41:55;63.09;54.97;73.22;;
74214;Laerm;62576;55.694;37.494;2023-05-07T08:44:26;62.64;53.76;69.18;;
74214;Laerm;62576;55.694;37.494;2023-05-07T08:46:56;65.72;56.86;75.78;;
74214;Laerm;62576;55.694;37.494;2023-05-07T08:49:29;66.34;58.43;75.45;;
74214;Laerm;62576;55.694;37.494;2023-05-07T08:51:59;66.11;58.50;78.01;;
74214;Laerm;62576;55.694;37.494;2023-05-07T08:54:30;66.30;55.89;72.75;;
74214;Laerm;62576;55.694;37.494;2023-05-07T08:57:01;65.47;57.01;83.65;;
74214;Laerm;62576;55.694;37.494;2023-05-07T08:59:31;62.98;57.48;73.95;;
74214;Laerm;62576;55.694;37.494;2023-05-07T09:02:01;63.36;56.74;73.46;;
74214;Laerm;62576;55.694;37.494;2023-05-07T09:04:33;62.19;57.12;75.93;;
74214;Laerm;62576;55.694;37.494;2023-05-07T09:07:04;62.49;50.57;79.76;;
74214;Laerm;62576;55.694;37.494;2023-05-07T09:09:34;62.48;58.10;70.29;;
74214;Laerm;62576;55.694;37.494;2023-05-07T09:12:04;62.98;57.14;76.56;;
74214;Laerm;62576;55.694;37.494;2023-05-07T09:14:34;62.56;53.76;73.76;;
74214;Laerm;62576;55.694;37.494;2023-05-07T09:17:05;61.79;56.29;69.59;;
74214;Laerm;62576;55.694;37.494;2023-05-07T09:19:36;62.79;57.12;76.62;;
74214;Laerm;62576;55.694;37.494;2023-05-07T09:22:06;63.70;56.24;78.94;;
74214;Laerm;62576;55.694;37.494;2023-05-07T09:24:37;61.57;56.29;69.61;;
74214;Laerm;62576;55.694;37.494;2023-05-07T09:27:08;62.40;55.68;67.46;;
74214;Laerm;62576;55.694;37.494;2023-05-07T09:29:41;61.60;56.91;75.54;;
74214;Laerm;62576;55.694;37.494;2023-05-07T09:32:14;63.81;54.27;73.48;;
74214;Laerm;62576;55.694;37.494;2023-05-07T09:34:46;62.52;55.34;69.96;;
74214;Laerm;62576;55.694;37.494;2023-05-07T09:37:16;64.21;56.43;85.54;;
74214;Laerm;62576;55.694;37.494;2023-05-07T09:39:48;62.97;55.24;76.20;;
74214;Laerm;62576;55.694;37.494;2023-05-07T09:42:23;61.91;52.30;69.52;;
74214;Laerm;62576;55.694;37.494;2023-05-07T09:44:52;63.01;54.24;75.23;;
74214;Laerm;62576;55.694;37.494;2023-05-07T09:47:24;62.69;55.96;68.30;;
74214;Laerm;62576;55.694;37.494;2023-05-07T09:49:56;61.65;56.62;74.71;;
74214;Laerm;62576;55.694;37.494;2023-05-07T09:52:28;61.66;51.59;67.28;;
74214;Laerm;62576;55.694;37.494;2023-05-07T09:55:02;62.62;57.10;69.12;;
74214;Laerm;62576;55.694;37.494;2023-05-07T09:57:34;61.78;53.84;70.10;;
74214;Laerm;62576;55.694;37.494;2023-05-07T10:00:07;61.73;53.72;69.07;;
74214;Laerm;62576;55.694;37.494;2023-05-07T10:02:39;62.39;54.28;70.27;;
74214;Laerm;62576;55.694;37.494;2023-05-07T10:05:16;62.76;52.40;73.52;;
74214;Laerm;62576;55.694;37.494;2023-05-07T10:07:48;61.45;50.02;68.87;;
74214;Laerm;62576;55.694;37.494;2023-05-07T10:10:19;62.15;54.67;83.49;;
74214;Laerm;62576;55.694;37.494;2023-05-07T10:12:50;65.71;52.61;89.17;;
74214;Laerm;62576;55.694;37.494;2023-05-07T10:15:21;64.22;58.19;75.86;;
74214;Laerm;62576;55.694;37.494;2023-05-07T10:17:53;63.45;59.07;79.47;;
74214;Laerm;62576;55.694;37.494;2023-05-07T10:20:26;64.27;58.79;71.00;;
74214;Laerm;62576;55.694;37.494;2023-05-07T10:22:57;63.51;59.10;74.28;;
74214;Laerm;62576;55.694;37.494;2023-05-07T10:25:30;64.34;57.74;73.75;;
74214;Laerm;62576;55.694;37.494;2023-05-07T10:28:04;62.91;57.32;69.98;;
74214;Laerm;62576;55.694;37.494;2023-05-07T10:30:41;63.65;55.31;78.04;;
74214;Laerm;62576;55.694;37.494;2023-05-07T10:33:21;61.89;54.61;70.85;;
74214;Laerm;62576;55.694;37.494;2023-05-07T10:35:57;62.61;52.95;73.28;;
74214;Laerm;62576;55.694;37.494;2023-05-07T10:38:28;62.35;53.70;68.56;;
74214;Laerm;62576;55.694;37.494;2023-05-07T10:40:59;64.01;54.52;85.96;;
74214;Laerm;62576;55.694;37.494;2023-05-07T10:43:39;63.24;57.74;71.59;;
74214;Laerm;62576;55.694;37.494;2023-05-07T10:46:11;62.45;57.15;69.09;;
74214;Laerm;62576;55.694;37.494;2023-05-07T10:49:11;63.67;56.53;71.94;;
74214;Laerm;62576;55.694;37.494;2023-05-07T10:51:42;62.45;56.16;73.44;;
74214;Laerm;62576;55.694;37.494;2023-05-07T10:57:33;61.56;57.27;70.01;;
74214;Laerm;62576;55.694;37.494;2023-05-07T11:00:43;63.76;56.41;73.90;;
74214;Laerm;62576;55.694;37.494;2023-05-07T11:03:16;62.91;57.43;76.02;;
74214;Laerm;62576;55.694;37.494;2023-05-07T11:05:46;64.11;53.76;83.23;;
74214;Laerm;62576;55.694;37.494;2023-05-07T11:08:19;61.93;51.57;73.99;;
74214;Laerm;62576;55.694;37.494;2023-05-07T11:10:51;61.97;51.20;73.54;;
74214;Laerm;62576;55.694;37.494;2023-05-07T11:13:42;64.01;53.44;82.09;;
74214;Laerm;62576;55.694;37.494;2023-05-07T11:16:27;62.03;50.20;69.24;;
74214;Laerm;62576;55.694;37.494;2023-05-07T11:18:58;63.26;57.95;70.11;;
74214;Laerm;62576;55.694;37.494;2023-05-07T11:21:33;63.39;58.12;76.63;;
74214;Laerm;62576;55.694;37.494;2023-05-07T11:24:06;64.04;58.65;69.17;;
74214;Laerm;62576;55.694;37.494;2023-05-07T11:26:45;66.10;59.28;75.47;;
74214;Laerm;62576;55.694;37.494;2023-05-07T11:29:17;66.47;59.99;74.23;;
74214;Laerm;62576;55.694;37.494;2023-05-07T11:31:51;63.46;57.33;70.72;;
74214;Laerm;62576;55.694;37.494;2023-05-07T11:34:24;63.06;57.45;68.86;;
74214;Laerm;62576;55.694;37.494;2023-05-07T11:36:55;64.39;57.44;71.85;;
74214;Laerm;62576;55.694;37.494;2023-05-07T11:39:29;64.13;57.57;71.01;;
74214;Laerm;62576;55.694;37.494;2023-05-07T11:42:01;64.62;59.48;70.90;;
74214;Laerm;62576;55.694;37.494;2023-05-07T11:44:46;62.51;56.96;71.77;;
74214;Laerm;62576;55.694;37.494;2023-05-07T11:47:18;63.57;57.53;83.86;;
74214;Laerm;62576;55.694;37.494;2023-05-07T11:49:48;62.32;54.34;68.49;;
74214;Laerm;62576;55.694;37.494;2023-05-07T11:52:20;62.41;52.86;70.58;;
74214;Laerm;62576;55.694;37.494;2023-05-07T11:54:52;63.78;58.84;70.39;;
74214;Laerm;62576;55.694;37.494;2023-05-07T11:57:24;63.40;56.43;77.19;;
74214;Laerm;62576;55.694;37.494;2023-05-07T11:59:54;64.25;54.03;77.49;;
74214;Laerm;62576;55.694;37.494;2023-05-07T12:02:24;63.26;53.95;70.11;;
74214;Laerm;62576;55.694;37.494;2023-05-07T12:04:54;64.88;56.76;86.74;;
74214;Laerm;62576;55.694;37.494;2023-05-07T12:07:25;65.90;58.60;96.45;;
74214;Laerm;62576;55.694;37.494;2023-05-07T12:09:56;63.75;58.14;70.09;;
74214;Laerm;62576;55.694;37.494;2023-05-07T12:12:26;62.78;58.02;68.22;;
74214;Laerm;62576;55.694;37.494;2023-05-07T12:14:57;63.31;56.68;70.91;;
74214;Laerm;62576;55.694;37.494;2023-05-07T12:17:27;62.36;53.50;68.65;;
74214;Laerm;62576;55.694;37.494;2023-05-07T12:19:58;61.71;54.54;67.70;;
74214;Laerm;62576;55.694;37.494;2023-05-07T12:22:28;62.21;55.08;67.64;;
74214;Laerm;62576;55.694;37.494;2023-05-07T12:25:00;61.47;52.14;68.46;;
74214;Laerm;62576;55.694;37.494;2023-05-07T12:27:30;64.02;57.41;75.45;;
74214;Laerm;62576;55.694;37.494;2023-05-07T12:30:00;63.63;57.58;72.47;;
74214;Laerm;62576;55.694;37.494;2023-05-07T12:32:30;64.04;58.28;76.81;;
74214;Laerm;62576;55.694;37.494;2023-05-07T12:35:06;63.64;57.55;71.06;;
74214;Laerm;62576;55.694;37.494;2023-05-07T12:37:37;63.53;57.73;73.89;;
74214;Laerm;62576;55.694;37.494;2023-05-07T12:40:09;62.43;57.21;69.69;;
74214;Laerm;62576;55.694;37.494;2023-05-07T12:42:40;63.25;57.62;72.78;;
74214;Laerm;62576;55.694;37.494;2023-05-07T12:45:09;64.42;58.22;78.05;;
74214;Laerm;62576;55.694;37.494;2023-05-07T12:47:39;65.67;56.57;81.61;;
74214;Laerm;62576;55.694;37.494;2023-05-07T12:50:09;62.09;56.97;68.08;;
74214;Laerm;62576;55.694;37.494;2023-05-07T12:52:40;63.25;57.69;69.36;;
74214;Laerm;62576;55.694;37.494;2023-05-07T12:55:14;62.62;57.55;73.76;;
74214;Laerm;62576;55.694;37.494;2023-05-07T12:57:48;64.11;56.68;79.76;;
74214;Laerm;62576;55.694;37.494;2023-05-07T13:00:32;62.60;57.12;74.79;;
74214;Laerm;62576;55.694;37.494;2023-05-07T13:03:03;62.93;57.85;71.38;;
74214;Laerm;62576;55.694;37.494;2023-05-07T13:05:33;62.27;56.57;67.99;;
74214;Laerm;62576;55.694;37.494;2023-05-07T13:08:04;63.49;54.54;74.43;;
74214;Laerm;62576;55.694;37.494;2023-05-07T13:10:35;61.85;53.32;67.69;;
74214;Laerm;62576;55.694;37.494;2023-05-07T13:13:05;63.42;53.23;74.13;;
74214;Laerm;62576;55.694;37.494;2023-05-07T13:15:35;66.21;55.09;77.84;;
74214;Laerm;62576;55.694;37.494;2023-05-07T13:18:06;62.79;58.16;71.66;;
74214;Laerm;62576;55.694;37.494;2023-05-07T13:20:36;61.46;50.62;69.15;;
74214;Laerm;62576;55.694;37.494;2023-05-07T13:23:06;63.77;53.80;78.10;;
74214;Laerm;62576;55.694;37.494;2023-05-07T13:25:39;62.86;56.75;75.31;;
74214;Laerm;62576;55.694;37.494;2023-05-07T13:28:09;61.24;52.93;67.60;;
74214;Laerm;62576;55.694;37.494;2023-05-07T13:30:39;62.74;56.60;72.56;;
74214;Laerm;62576;55.694;37.494;2023-05-07T13:33:10;63.13;56.90;76.13;;
74214;Laerm;62576;55.694;37.494;2023-05-07T13:35:40;62.33;57.45;67.44;;
74214;Laerm;62576;55.694;37.494;2023-05-07T13:38:10;62.44;58.07;70.11;;
74214;Laerm;62576;55.694;37.494;2023-05-07T13:40:42;63.46;59.20;72.72;;
74214;Laerm;62576;55.694;37.494;2023-05-07T13:43:12;62.32;57.67;69.02;;
74214;Laerm;62576;55.694;37.494;2023-05-07T13:45:40;63.26;56.59;75.84;;
74214;Laerm;62576;55.694;37.494;2023-05-07T13:48:10;63.44;57.02;75.32;;
74214;Laerm;62576;55.694;37.494;2023-05-07T13:50:40;62.17;55.00;66.92;;
74214;Laerm;62576;55.694;37.494;2023-05-07T13:53:10;62.96;55.36;76.61;;
74214;Laerm;62576;55.694;37.494;2023-05-07T13:55:40;62.50;55.18;67.80;;
74214;Laerm;62576;55.694;37.494;2023-05-07T13:58:12;62.88;56.03;69.68;;
74214;Laerm;62576;55.694;37.494;2023-05-07T14:00:42;62.29;56.62;73.65;;
74214;Laerm;62576;55.694;37.494;2023-05-07T14:03:13;62.27;57.09;67.94;;
74214;Laerm;62576;55.694;37.494;2023-05-07T14:05:43;63.06;57.91;67.80;;
74214;Laerm;62576;55.694;37.494;2023-05-07T14:08:13;63.07;57.13;71.16;;
74214;Laerm;62576;55.694;37.494;2023-05-07T14:10:43;62.72;56.92;69.15;;
74214;Laerm;62576;55.694;37.494;2023-05-07T14:13:16;62.91;55.96;67.71;;
74214;Laerm;62576;55.694;37.494;2023-05-07T14:15:46;62.73;54.22;67.46;;
74214;Laerm;62576;55.694;37.494;2023-05-07T14:18:17;63.52;55.61;85.75;;